Time;durP1;ratioP1;P1;durP2;ratioP2;P2;SDS_P1;SDS_P2;PMS_P1;PMS_P2;Temp;Humidity;BMP_temperature;BMP_pressure;BME280_temperature;BME280_humidity;BME280_pressure;Samples;Min_cycle;Max_cycle;Signal;HPM_P1;HPM_P2
2021/09/09 08:46:27;;;;;;;16.13;12.60;;;23.10;97.60;;;;;;5119683;23;20519;-80
2021/09/09 08:48:31;;;;;;;13.70;12.40;;;23.40;97.20;;;;;;5119673;23;20430;-80
2021/09/09 08:50:34;;;;;;;14.43;12.07;;;23.50;97.00;;;;;;5119408;23;20430;-80
2021/09/09 08:52:37;;;;;;;13.73;12.33;;;23.70;95.40;;;;;;5119973;23;20425;-80
2021/09/09 08:54:40;;;;;;;13.73;12.20;;;23.90;95.00;;;;;;5119658;23;21005;-80
2021/09/09 08:56:43;;;;;;;15.50;13.10;;;24.00;93.90;;;;;;5120325;23;20517;-80
2021/09/09 08:58:46;;;;;;;13.73;11.70;;;24.00;93.00;;;;;;5119447;23;20913;-80
2021/09/09 09:01:05;;;;;;;14.37;12.83;;;24.00;93.70;;;;;;5119644;23;20436;-80
2021/09/09 09:03:12;;;;;;;12.80;11.53;;;24.00;93.50;;;;;;5119035;23;20477;-80
2021/09/09 09:05:15;;;;;;;12.77;11.47;;;24.00;93.10;;;;;;5118791;23;20434;-80
2021/09/09 09:07:30;;;;;;;14.40;12.43;;;24.20;92.90;;;;;;5119958;23;20436;-80
2021/09/09 09:09:34;;;;;;;14.80;11.67;;;24.10;92.30;;;;;;5119438;23;20541;-80
2021/09/09 09:11:41;;;;;;;15.47;11.87;;;24.00;93.00;;;;;;5127617;23;20418;-80
2021/09/09 09:13:47;;;;;;;11.87;10.73;;;24.20;93.40;;;;;;5119007;23;20454;-80
2021/09/09 09:15:52;;;;;;;13.63;11.90;;;24.40;91.10;;;;;;5119059;23;20410;-80
2021/09/09 09:18:01;;;;;;;12.20;10.97;;;24.30;90.70;;;;;;5119828;23;20464;-80
2021/09/09 09:20:14;;;;;;;12.33;11.20;;;24.40;91.60;;;;;;5120859;23;20498;-80
2021/09/09 09:22:17;;;;;;;15.23;10.93;;;24.60;90.20;;;;;;5119620;23;20925;-81
2021/09/09 09:24:21;;;;;;;14.97;11.17;;;24.60;89.50;;;;;;5118159;23;20446;-80
2021/09/09 09:26:24;;;;;;;14.30;10.77;;;24.80;89.60;;;;;;5118410;23;20476;-80
2021/09/09 09:28:42;;;;;;;13.90;10.90;;;24.90;88.30;;;;;;5119333;23;20425;-80
2021/09/09 09:31:04;;;;;;;12.40;11.03;;;25.00;88.20;;;;;;5118788;23;20420;-80
2021/09/09 09:33:07;;;;;;;14.83;10.50;;;24.90;88.50;;;;;;5118228;23;21070;-80
2021/09/09 09:35:17;;;;;;;12.47;10.30;;;24.90;87.70;;;;;;5118478;23;20894;-80
2021/09/09 09:37:24;;;;;;;13.57;10.73;;;24.90;88.70;;;;;;5118900;23;21080;-80
2021/09/09 09:39:27;;;;;;;11.70;10.70;;;25.10;88.60;;;;;;5118768;23;20418;-80
2021/09/09 09:41:30;;;;;;;13.80;11.20;;;25.10;87.10;;;;;;5119299;23;20430;-80
2021/09/09 09:43:59;;;;;;;11.93;10.30;;;25.20;88.60;;;;;;5118086;23;20766;-80
2021/09/09 09:46:04;;;;;;;11.87;10.67;;;25.40;89.50;;;;;;5118624;23;20476;-80
2021/09/09 09:48:25;;;;;;;12.87;10.63;;;25.60;89.00;;;;;;5119075;23;20426;-80
2021/09/09 09:50:39;;;;;;;12.03;10.67;;;25.70;86.70;;;;;;5119082;23;20441;-80
2021/09/09 09:52:41;;;;;;;11.93;10.43;;;25.90;85.80;;;;;;5119285;23;20422;-81
2021/09/09 09:54:50;;;;;;;12.47;10.50;;;25.80;85.30;;;;;;5119542;23;20496;-80
2021/09/09 09:56:54;;;;;;;10.90;9.80;;;26.00;85.70;;;;;;5119758;23;20406;-80
2021/09/09 09:58:57;;;;;;;11.70;10.13;;;26.10;83.40;;;;;;5119703;23;20484;-80
2021/09/09 10:01:03;;;;;;;15.80;11.40;;;26.10;84.40;;;;;;5119303;23;20445;-80
2021/09/09 10:03:06;;;;;;;12.70;10.50;;;26.20;86.00;;;;;;5120625;23;20450;-80
2021/09/09 10:05:12;;;;;;;11.37;10.20;;;26.30;86.60;;;;;;5119690;23;20426;-80
2021/09/09 10:07:17;;;;;;;10.90;9.90;;;26.20;86.00;;;;;;5120364;23;20826;-80
2021/09/09 10:09:21;;;;;;;12.03;10.47;;;26.50;86.10;;;;;;5120812;23;20912;-80
2021/09/09 10:11:24;;;;;;;10.90;9.90;;;26.60;84.00;;;;;;5121543;23;20451;-80
2021/09/09 10:13:27;;;;;;;11.63;10.50;;;26.70;84.00;;;;;;5120382;23;20512;-81
2021/09/09 10:15:31;;;;;;;11.93;10.80;;;26.50;83.60;;;;;;5120532;23;20430;-80
2021/09/09 10:17:34;;;;;;;10.80;9.80;;;26.50;84.60;;;;;;5129402;23;20775;-81
2021/09/09 10:19:37;;;;;;;12.10;10.80;;;26.70;85.00;;;;;;5121168;23;20426;-80
2021/09/09 10:21:48;;;;;;;12.63;9.70;;;27.20;82.70;;;;;;5120821;23;20424;-81
2021/09/09 10:24:08;;;;;;;15.70;10.07;;;27.30;81.40;;;;;;5120388;23;20957;-81
2021/09/09 10:26:27;;;;;;;12.50;10.50;;;27.50;82.60;;;;;;5121610;23;20438;-80
2021/09/09 10:28:41;;;;;;;11.17;10.10;;;27.50;81.20;;;;;;5121178;23;20414;-80
2021/09/09 10:31:02;;;;;;;11.17;9.67;;;27.40;81.50;;;;;;5121263;23;20426;-80
2021/09/09 10:33:05;;;;;;;11.00;9.80;;;27.70;81.40;;;;;;5121406;23;20979;-80
2021/09/09 10:35:37;;;;;;;10.77;8.60;;;27.60;81.00;;;;;;5121372;23;20425;-80
2021/09/09 10:37:39;;;;;;;10.37;9.27;;;27.60;79.40;;;;;;5036767;23;20814;-80
2021/09/09 10:39:57;;;;;;;10.80;9.70;;;27.80;78.90;;;;;;5121386;23;20521;-80
2021/09/09 10:42:00;;;;;;;10.23;9.20;;;28.20;77.80;;;;;;5121531;23;20445;-81
2021/09/09 10:44:04;;;;;;;11.33;9.50;;;28.20;76.30;;;;;;5120602;23;20935;-80
2021/09/09 10:46:11;;;;;;;11.77;10.10;;;28.20;76.80;;;;;;5120804;23;20461;-81
2021/09/09 10:48:22;;;;;;;11.10;8.90;;;28.20;76.50;;;;;;5121286;23;20814;-80
2021/09/09 10:50:25;;;;;;;10.03;9.03;;;27.80;76.20;;;;;;5121746;23;20505;-81
2021/09/09 10:52:28;;;;;;;10.33;9.43;;;27.90;76.60;;;;;;5121791;23;20430;-80
2021/09/09 10:54:31;;;;;;;10.97;8.10;;;28.20;76.40;;;;;;5121238;23;20460;-81
2021/09/09 10:56:37;;;;;;;10.33;8.47;;;28.30;75.90;;;;;;5121320;23;20428;-80
2021/09/09 10:58:41;;;;;;;11.93;9.47;;;28.20;76.30;;;;;;5121308;23;20473;-81
2021/09/09 11:00:55;;;;;;;10.07;9.17;;;28.00;76.30;;;;;;5121531;23;20435;-81
2021/09/09 11:02:59;;;;;;;10.37;9.10;;;28.00;77.10;;;;;;5130093;23;20437;-80
2021/09/09 11:05:05;;;;;;;10.97;9.83;;;28.20;77.30;;;;;;5122483;23;20440;-81
2021/09/09 11:07:22;;;;;;;9.90;9.07;;;28.50;76.20;;;;;;5121093;23;20456;-80
2021/09/09 11:09:26;;;;;;;9.90;8.90;;;28.50;75.90;;;;;;5121612;23;20481;-80
2021/09/09 11:11:30;;;;;;;9.30;8.40;;;28.80;76.00;;;;;;5129890;23;20454;-81
2021/09/09 11:13:36;;;;;;;9.53;8.73;;;29.00;72.80;;;;;;5128227;23;20451;-81
2021/09/09 11:15:39;;;;;;;10.10;8.30;;;29.40;71.90;;;;;;5121541;23;20444;-80
2021/09/09 11:17:42;;;;;;;9.63;8.73;;;29.50;72.00;;;;;;5121373;23;20431;-81
2021/09/09 11:19:45;;;;;;;9.37;8.47;;;29.40;71.40;;;;;;5129162;23;20418;-81
2021/09/09 11:21:48;;;;;;;10.60;9.10;;;29.30;72.10;;;;;;5121576;23;20429;-81
2021/09/09 11:23:58;;;;;;;11.57;8.67;;;29.50;72.20;;;;;;5121403;23;20449;-81
2021/09/09 11:26:12;;;;;;;8.77;7.87;;;29.70;72.10;;;;;;5121648;23;20514;-81
2021/09/09 11:28:17;;;;;;;9.50;8.60;;;30.20;71.80;;;;;;5129528;23;20398;-81
2021/09/09 11:30:21;;;;;;;10.20;8.43;;;30.00;71.20;;;;;;5121316;23;20442;-81
2021/09/09 11:32:24;;;;;;;10.53;9.63;;;30.20;71.30;;;;;;5120775;23;20422;-81
2021/09/09 11:34:30;;;;;;;11.15;9.40;;;30.40;70.60;;;;;;5120857;23;20449;-81
2021/09/09 11:36:34;;;;;;;9.02;8.18;;;30.60;69.70;;;;;;5121285;23;20468;-81
2021/09/09 11:38:37;;;;;;;10.68;8.52;;;30.90;69.30;;;;;;5121971;23;20438;-81
2021/09/09 11:40:40;;;;;;;10.23;9.30;;;30.70;69.20;;;;;;5121493;23;20436;-81
2021/09/09 11:42:42;;;;;;;9.68;8.70;;;30.90;69.20;;;;;;5120529;23;20429;-81
2021/09/09 11:44:46;;;;;;;9.07;8.20;;;30.40;70.60;;;;;;5120611;23;20433;-81
2021/09/09 11:46:50;;;;;;;10.32;9.20;;;30.40;70.60;;;;;;5120972;23;20513;-81
2021/09/09 11:48:54;;;;;;;10.63;9.82;;;30.80;69.90;;;;;;5121750;23;20425;-81
2021/09/09 11:50:57;;;;;;;10.27;9.35;;;30.30;68.90;;;;;;5121164;23;20429;-81
2021/09/09 11:53:01;;;;;;;13.70;9.02;;;30.50;70.10;;;;;;5121160;23;20770;-82
2021/09/09 11:55:14;;;;;;;9.75;8.85;;;31.00;69.00;;;;;;5120898;23;20492;-81
2021/09/09 11:57:19;;;;;;;10.38;8.82;;;31.70;68.90;;;;;;5121634;23;20409;-81
2021/09/09 11:59:22;;;;;;;10.15;9.13;;;32.40;67.50;;;;;;5121706;23;20429;-81
2021/09/09 12:01:25;;;;;;;11.15;9.40;;;32.30;66.00;;;;;;5121259;23;20479;-80
2021/09/09 12:03:31;;;;;;;10.77;8.98;;;31.10;66.60;;;;;;5121228;23;20449;-82
2021/09/09 12:05:36;;;;;;;10.80;9.88;;;30.50;68.50;;;;;;5121162;23;20414;-80
2021/09/09 12:07:39;;;;;;;9.75;8.95;;;31.00;68.80;;;;;;5121615;23;20445;-81
2021/09/09 12:09:53;;;;;;;10.07;9.18;;;31.30;68.10;;;;;;5129623;23;20933;-81
2021/09/09 12:12:07;;;;;;;10.05;9.10;;;31.70;67.90;;;;;;5121814;23;20420;-81
2021/09/09 12:14:17;;;;;;;24.05;21.50;;;31.90;66.80;;;;;;5121796;23;20487;-82
2021/09/09 12:16:22;;;;;;;20.45;18.38;;;32.90;66.40;;;;;;5121080;23;20439;-81
2021/09/09 12:18:32;;;;;;;9.93;8.90;;;33.50;65.40;;;;;;5121193;23;20441;-81
2021/09/09 12:20:35;;;;;;;10.95;9.48;;;32.40;66.30;;;;;;5121648;23;20225;-81
2021/09/09 12:22:50;;;;;;;10.80;8.77;;;32.70;65.60;;;;;;5121124;23;20729;-81
2021/09/09 12:24:52;;;;;;;9.45;8.68;;;32.50;66.70;;;;;;5121091;23;20413;-81
2021/09/09 12:27:00;;;;;;;11.93;9.15;;;33.10;64.70;;;;;;5129450;23;20209;-81
2021/09/09 12:29:16;;;;;;;11.25;8.95;;;33.30;64.90;;;;;;5121699;23;20675;-81
2021/09/09 12:31:32;;;;;;;11.25;9.65;;;32.30;63.30;;;;;;5129481;23;20177;-81
2021/09/09 12:33:39;;;;;;;10.20;9.20;;;32.70;64.50;;;;;;5120708;23;20264;-81
2021/09/09 12:36:00;;;;;;;9.55;8.75;;;33.30;63.40;;;;;;5121160;23;20176;-81
2021/09/09 12:38:07;;;;;;;10.07;8.95;;;33.50;63.00;;;;;;5122005;23;20539;-81
2021/09/09 12:40:11;;;;;;;11.07;9.40;;;34.10;62.20;;;;;;5120671;23;20233;-81
2021/09/09 12:42:14;;;;;;;12.18;9.30;;;34.50;62.10;;;;;;5121166;23;20189;-81
2021/09/09 12:44:19;;;;;;;9.48;8.68;;;34.40;61.70;;;;;;5120752;23;20277;-81
2021/09/09 12:46:26;;;;;;;9.65;8.75;;;33.40;63.00;;;;;;5120859;23;20240;-81
2021/09/09 12:48:30;;;;;;;10.07;9.23;;;33.60;61.30;;;;;;5120984;23;20224;-81
2021/09/09 12:50:35;;;;;;;9.63;8.80;;;34.00;60.60;;;;;;5120710;23;20178;-81
2021/09/09 12:52:52;;;;;;;11.05;9.02;;;33.70;61.20;;;;;;5128256;23;20436;-81
2021/09/09 12:54:55;;;;;;;9.65;8.75;;;33.70;61.00;;;;;;5120266;23;20420;-81
2021/09/09 12:57:04;;;;;;;9.80;8.98;;;34.00;60.60;;;;;;5129545;23;20429;-81
2021/09/09 12:59:07;;;;;;;9.27;8.38;;;33.70;61.30;;;;;;5121461;23;20512;-81
2021/09/09 13:01:10;;;;;;;8.98;8.23;;;33.00;61.60;;;;;;5121819;23;20433;-81
2021/09/09 13:03:13;;;;;;;9.20;8.40;;;33.10;62.30;;;;;;5121046;23;20455;-81
2021/09/09 13:05:16;;;;;;;9.85;9.05;;;33.80;61.60;;;;;;5120354;23;20447;-81
2021/09/09 13:07:20;;;;;;;12.82;9.25;;;34.20;60.60;;;;;;5120133;23;20433;-81
2021/09/09 13:09:35;;;;;;;9.52;8.73;;;34.10;62.00;;;;;;5119427;23;20500;-80
2021/09/09 13:11:38;;;;;;;9.40;8.70;;;34.80;60.30;;;;;;5127305;23;20178;-81
2021/09/09 13:13:41;;;;;;;9.27;8.48;;;35.30;58.90;;;;;;5118574;23;20208;-81
2021/09/09 13:15:45;;;;;;;9.18;8.48;;;35.00;59.30;;;;;;5118955;23;20178;-81
2021/09/09 13:18:03;;;;;;;10.73;9.15;;;35.00;58.30;;;;;;5127277;23;20159;-81
2021/09/09 13:20:08;;;;;;;9.75;8.85;;;35.30;58.90;;;;;;5118560;23;20188;-81
2021/09/09 13:22:10;;;;;;;9.02;8.15;;;34.70;59.60;;;;;;5118809;23;20182;-81
2021/09/09 13:24:15;;;;;;;9.50;8.70;;;34.90;59.40;;;;;;5118901;23;20289;-81
2021/09/09 13:26:18;;;;;;;11.32;10.23;;;35.50;58.90;;;;;;5119075;23;20182;-81
2021/09/09 13:28:20;;;;;;;9.68;8.82;;;35.90;59.00;;;;;;5118964;23;20253;-80
2021/09/09 13:30:30;;;;;;;9.45;8.75;;;35.80;58.20;;;;;;5119539;23;20189;-81
2021/09/09 13:32:32;;;;;;;9.55;8.75;;;35.40;59.20;;;;;;5126713;23;20169;-81
2021/09/09 13:34:36;;;;;;;9.50;8.70;;;35.10;59.40;;;;;;5118459;23;20944;-81
2021/09/09 13:36:42;;;;;;;10.27;8.40;;;35.00;59.70;;;;;;5118639;23;20193;-81
2021/09/09 13:38:45;;;;;;;9.32;8.52;;;35.70;58.30;;;;;;5118744;23;20668;-81
2021/09/09 13:40:50;;;;;;;9.40;8.50;;;36.30;57.20;;;;;;5119465;23;20182;-81
2021/09/09 13:42:57;;;;;;;9.65;8.85;;;35.80;59.00;;;;;;5118720;23;20204;-81
2021/09/09 13:45:02;;;;;;;9.38;8.57;;;35.70;58.40;;;;;;5118759;23;20194;-81
2021/09/09 13:47:05;;;;;;;9.70;8.85;;;35.60;58.80;;;;;;5127437;23;20201;-81
2021/09/09 13:49:08;;;;;;;9.68;8.57;;;35.00;60.00;;;;;;5118667;23;20543;-81
2021/09/09 13:51:11;;;;;;;9.45;8.60;;;35.20;60.10;;;;;;5119674;23;20568;-81
2021/09/09 13:53:14;;;;;;;9.25;8.45;;;35.80;58.90;;;;;;5127211;23;20193;-81
2021/09/09 13:55:17;;;;;;;9.55;8.30;;;36.10;59.00;;;;;;5119067;23;20706;-81
2021/09/09 13:57:21;;;;;;;9.40;8.60;;;36.00;59.20;;;;;;5127064;23;20182;-81
2021/09/09 13:59:37;;;;;;;9.38;8.52;;;36.50;57.70;;;;;;5119752;23;20194;-81
2021/09/09 14:01:40;;;;;;;9.60;8.70;;;36.20;58.00;;;;;;5118855;23;20186;-81
2021/09/09 14:03:43;;;;;;;8.48;7.78;;;35.70;58.30;;;;;;5119294;23;20202;-81
2021/09/09 14:05:47;;;;;;;8.52;7.82;;;36.00;58.00;;;;;;5127555;23;20193;-81
2021/09/09 14:07:50;;;;;;;9.23;8.30;;;36.20;57.30;;;;;;5127439;23;20188;-81
2021/09/09 14:09:53;;;;;;;9.45;8.75;;;36.10;57.50;;;;;;5127301;23;20217;-81
2021/09/09 14:11:56;;;;;;;9.13;8.32;;;36.20;58.00;;;;;;5119760;23;20178;-81
2021/09/09 14:14:00;;;;;;;8.93;8.23;;;36.90;57.40;;;;;;5125574;23;20656;-81
2021/09/09 14:16:04;;;;;;;10.95;8.90;;;36.80;56.90;;;;;;5118927;23;20476;-81
2021/09/09 14:18:06;;;;;;;9.75;8.90;;;36.60;57.60;;;;;;5118361;23;20193;-81
2021/09/09 14:20:10;;;;;;;12.38;9.27;;;36.20;57.70;;;;;;5126565;23;20232;-81
2021/09/09 14:22:13;;;;;;;9.35;8.55;;;35.30;59.10;;;;;;5126529;23;20178;-81
2021/09/09 14:24:16;;;;;;;9.32;8.50;;;35.60;58.70;;;;;;5118299;23;20271;-81
2021/09/09 14:26:19;;;;;;;10.45;9.60;;;35.50;58.00;;;;;;5118790;23;20256;-81
2021/09/09 14:28:22;;;;;;;9.18;8.38;;;36.10;57.80;;;;;;5118695;23;20182;-81
2021/09/09 14:30:26;;;;;;;9.85;9.02;;;36.30;57.30;;;;;;5126899;23;20179;-81
2021/09/09 14:32:29;;;;;;;14.23;12.98;;;36.20;58.40;;;;;;5119074;23;20627;-81
2021/09/09 14:34:32;;;;;;;8.95;8.05;;;36.10;58.50;;;;;;5118145;23;20264;-81
2021/09/09 14:36:35;;;;;;;10.75;9.20;;;36.10;57.90;;;;;;5126939;23;20206;-81
2021/09/09 14:38:38;;;;;;;10.02;8.50;;;36.00;56.70;;;;;;5118387;23;20198;-80
2021/09/09 14:40:41;;;;;;;9.07;8.27;;;35.80;57.40;;;;;;5118178;23;20196;-80
2021/09/09 14:42:44;;;;;;;9.10;8.18;;;35.90;56.70;;;;;;5126473;23;20178;-81
2021/09/09 14:44:47;;;;;;;9.35;8.05;;;35.70;57.20;;;;;;5118613;22;20268;-81
2021/09/09 14:46:51;;;;;;;9.07;8.38;;;36.40;56.70;;;;;;5146558;23;20174;-83
2021/09/09 14:48:54;;;;;;;9.60;8.70;;;36.40;56.80;;;;;;5147455;23;20184;-82
2021/09/09 14:50:57;;;;;;;10.38;9.15;;;36.20;56.50;;;;;;5148349;23;20186;-80
2021/09/09 14:53:00;;;;;;;9.48;8.60;;;36.10;56.80;;;;;;5152001;23;20173;-81
2021/09/09 14:55:03;;;;;;;8.68;7.97;;;36.10;56.80;;;;;;5146915;23;20201;-84
2021/09/09 14:57:06;;;;;;;9.02;8.32;;;35.70;57.40;;;;;;5155287;23;20181;-82
2021/09/09 14:59:09;;;;;;;9.00;8.10;;;35.30;56.50;;;;;;5147530;23;20666;-83
2021/09/09 15:01:12;;;;;;;8.18;7.45;;;34.20;59.00;;;;;;5146663;23;20188;-82
2021/09/09 15:03:17;;;;;;;21.27;19.35;;;35.30;57.40;;;;;;5143755;23;20181;-82
2021/09/09 15:05:20;;;;;;;10.25;9.35;;;35.80;57.20;;;;;;5141727;23;20197;-83
2021/09/09 15:07:23;;;;;;;12.60;11.57;;;35.80;56.90;;;;;;5142542;23;20241;-83
2021/09/09 15:09:26;;;;;;;8.82;8.02;;;36.30;55.90;;;;;;5143905;23;20180;-83
2021/09/09 15:11:29;;;;;;;8.95;8.15;;;35.80;56.30;;;;;;5143867;23;20227;-82
2021/09/09 15:13:34;;;;;;;9.48;8.48;;;36.80;54.60;;;;;;5143410;23;20231;-82
2021/09/09 15:15:38;;;;;;;9.13;7.90;;;36.90;55.50;;;;;;5143791;23;20232;-82
2021/09/09 15:17:41;;;;;;;9.20;8.05;;;36.20;54.90;;;;;;5144178;23;20269;-83
2021/09/09 15:19:45;;;;;;;8.65;7.70;;;33.80;59.30;;;;;;5144765;23;20193;-82
2021/09/09 15:21:48;;;;;;;8.85;8.15;;;34.80;58.70;;;;;;5146038;23;20189;-83
2021/09/09 15:23:50;;;;;;;8.23;7.53;;;35.50;57.60;;;;;;5144134;23;20181;-83
2021/09/09 15:25:53;;;;;;;8.75;7.95;;;35.50;56.70;;;;;;5144303;23;20197;-83
2021/09/09 15:27:56;;;;;;;8.35;7.75;;;35.40;57.10;;;;;;5154261;23;20177;-82
2021/09/09 15:29:59;;;;;;;8.50;7.90;;;35.50;55.70;;;;;;5147668;23;20177;-83
2021/09/09 15:32:02;;;;;;;8.88;8.15;;;35.00;55.90;;;;;;5146710;23;20189;-82
2021/09/09 15:34:09;;;;;;;8.90;8.13;;;35.20;56.10;;;;;;5147248;23;20185;-84
2021/09/09 15:36:13;;;;;;;8.70;7.97;;;34.60;57.30;;;;;;5148600;23;20197;-83
2021/09/09 15:38:16;;;;;;;8.88;8.07;;;33.50;58.00;;;;;;5146931;23;20185;-83
2021/09/09 15:40:19;;;;;;;8.55;7.82;;;32.50;60.30;;;;;;5146896;23;20197;-83
2021/09/09 15:42:22;;;;;;;9.32;8.50;;;32.20;61.50;;;;;;5147924;23;20183;-83
2021/09/09 15:44:25;;;;;;;8.45;7.75;;;31.90;62.20;;;;;;5146663;23;20185;-82
2021/09/09 15:46:29;;;;;;;8.88;8.18;;;31.20;62.80;;;;;;5146230;23;20209;-82
2021/09/09 15:48:32;;;;;;;8.88;8.07;;;30.50;64.20;;;;;;5146439;23;20654;-81
2021/09/09 15:50:35;;;;;;;9.73;8.55;;;30.60;64.40;;;;;;5145636;23;20424;-83
2021/09/09 15:52:39;;;;;;;8.95;8.15;;;30.40;64.40;;;;;;5146448;23;20799;-82
2021/09/09 15:54:42;;;;;;;9.02;8.25;;;30.20;65.50;;;;;;5145898;23;20921;-83
2021/09/09 15:56:44;;;;;;;8.63;7.82;;;30.10;66.10;;;;;;5152298;23;20455;-82
2021/09/09 15:58:47;;;;;;;9.03;8.33;;;29.70;66.80;;;;;;5148763;23;20434;-83
2021/09/09 16:00:50;;;;;;;10.07;9.07;;;29.90;67.00;;;;;;5147289;23;20450;-83
2021/09/09 16:02:54;;;;;;;8.80;8.00;;;29.90;67.30;;;;;;5147352;23;20428;-83
2021/09/09 16:04:57;;;;;;;8.37;7.60;;;29.60;67.60;;;;;;5147293;23;20576;-83
2021/09/09 16:07:01;;;;;;;9.93;8.00;;;29.50;67.90;;;;;;5148274;23;20428;-82
2021/09/09 16:09:05;;;;;;;9.37;8.43;;;29.30;69.00;;;;;;5147694;23;20479;-82
2021/09/09 16:11:08;;;;;;;9.00;8.20;;;29.20;69.30;;;;;;5157955;23;20462;-81
2021/09/09 16:13:11;;;;;;;10.07;9.27;;;29.00;70.20;;;;;;5158809;23;20492;-81
2021/09/09 16:15:14;;;;;;;8.67;7.87;;;28.70;71.40;;;;;;5166610;23;20440;-82
2021/09/09 16:17:22;;;;;;;12.80;11.60;;;28.60;72.40;;;;;;5158326;23;20795;-81
2021/09/09 16:19:25;;;;;;;11.93;10.87;;;28.60;72.70;;;;;;5157786;23;20427;-82
2021/09/09 16:21:28;;;;;;;15.00;11.20;;;28.60;73.00;;;;;;5158630;23;20429;-81
2021/09/09 16:23:32;;;;;;;11.63;9.90;;;28.50;72.70;;;;;;5157892;23;20525;-83
2021/09/09 16:25:37;;;;;;;10.17;8.90;;;28.20;73.80;;;;;;5148058;23;20452;-83
2021/09/09 16:27:40;;;;;;;10.90;8.77;;;28.10;74.00;;;;;;5155730;23;20424;-83
2021/09/09 16:29:43;;;;;;;9.27;8.47;;;28.10;74.40;;;;;;5147613;23;20429;-83
2021/09/09 16:31:46;;;;;;;9.80;8.80;;;28.00;75.00;;;;;;5147516;23;20787;-83
2021/09/09 16:33:49;;;;;;;10.30;8.90;;;27.90;75.50;;;;;;5147036;23;20426;-83
2021/09/09 16:35:52;;;;;;;12.17;8.73;;;27.70;76.00;;;;;;5155530;23;20544;-82
2021/09/09 16:37:55;;;;;;;11.23;9.07;;;27.70;76.40;;;;;;5148189;23;20433;-83
2021/09/09 16:39:58;;;;;;;11.77;8.50;;;27.80;75.90;;;;;;5146631;23;20449;-82
2021/09/09 16:42:02;;;;;;;11.50;10.30;;;27.80;76.50;;;;;;5144119;23;20932;-82
2021/09/09 16:44:05;;;;;;;9.63;8.73;;;27.50;77.00;;;;;;5141289;23;20686;-81
2021/09/09 16:46:08;;;;;;;10.23;8.90;;;27.30;77.60;;;;;;5141305;23;20457;-82
2021/09/09 16:48:11;;;;;;;9.90;9.00;;;27.20;78.40;;;;;;5145290;23;20432;-81
2021/09/09 16:50:14;;;;;;;10.57;9.33;;;27.10;78.50;;;;;;5143571;23;20427;-83
2021/09/09 16:52:17;;;;;;;12.00;9.80;;;27.00;78.70;;;;;;5145884;23;20429;-83
2021/09/09 16:54:20;;;;;;;11.33;9.97;;;26.90;79.30;;;;;;5145077;23;20463;-83
2021/09/09 16:56:25;;;;;;;11.70;9.43;;;26.90;79.40;;;;;;5146037;23;20457;-81
2021/09/09 16:58:31;;;;;;;11.50;9.70;;;26.90;79.30;;;;;;5146767;23;20440;-80
2021/09/09 17:00:35;;;;;;;9.20;8.33;;;26.80;79.70;;;;;;5150272;23;20437;-81
2021/09/09 17:02:38;;;;;;;11.40;8.83;;;26.80;79.80;;;;;;5146809;23;20428;-84
2021/09/09 17:04:42;;;;;;;10.80;9.20;;;26.70;79.90;;;;;;5146166;23;20440;-83
2021/09/09 17:06:45;;;;;;;10.27;9.17;;;26.80;79.90;;;;;;5146634;23;20435;-81
2021/09/09 17:08:47;;;;;;;10.10;9.20;;;26.80;80.10;;;;;;5155319;23;20491;-82
2021/09/09 17:10:50;;;;;;;13.93;12.63;;;26.70;80.40;;;;;;5146717;23;20425;-83
2021/09/09 17:12:53;;;;;;;12.93;11.50;;;26.50;81.10;;;;;;5146065;23;20440;-81
2021/09/09 17:14:57;;;;;;;11.23;9.60;;;26.50;81.20;;;;;;5145865;23;20929;-83
2021/09/09 17:17:00;;;;;;;10.90;9.87;;;26.60;81.00;;;;;;5146223;23;20424;-83
2021/09/09 17:19:05;;;;;;;10.93;9.00;;;26.50;81.50;;;;;;5146060;23;20429;-82
2021/09/09 17:21:12;;;;;;;9.60;8.70;;;26.40;81.90;;;;;;5145785;23;20519;-82
2021/09/09 17:23:14;;;;;;;12.10;9.30;;;26.40;82.00;;;;;;5146398;23;20455;-83
2021/09/09 17:25:19;;;;;;;11.53;9.50;;;26.50;82.30;;;;;;5147016;23;20803;-83
2021/09/09 17:27:22;;;;;;;10.60;9.60;;;26.50;81.90;;;;;;5146056;23;20429;-83
2021/09/09 17:29:25;;;;;;;11.60;9.53;;;26.60;82.00;;;;;;5154016;23;20443;-83
2021/09/09 17:31:29;;;;;;;12.50;9.53;;;26.50;82.20;;;;;;5146786;23;20432;-81
2021/09/09 17:33:32;;;;;;;12.90;9.80;;;26.40;82.40;;;;;;5145689;23;20425;-83
2021/09/09 17:35:36;;;;;;;12.63;10.20;;;26.30;82.60;;;;;;5154418;23;20480;-83
2021/09/09 17:37:40;;;;;;;11.03;9.93;;;26.30;82.70;;;;;;5146468;23;20443;-81
2021/09/09 17:39:43;;;;;;;11.00;9.83;;;26.40;82.60;;;;;;5146243;23;20464;-83
2021/09/09 17:41:46;;;;;;;11.80;10.43;;;26.50;82.30;;;;;;5146065;23;20445;-82
2021/09/09 17:43:49;;;;;;;11.50;10.30;;;26.40;82.50;;;;;;5145673;23;20455;-83
2021/09/09 17:45:52;;;;;;;11.80;10.63;;;26.50;82.40;;;;;;5143516;23;20461;-80
2021/09/09 17:47:56;;;;;;;12.60;10.30;;;26.30;82.80;;;;;;5141702;23;20433;-81
2021/09/09 17:49:59;;;;;;;13.60;10.13;;;26.30;83.00;;;;;;5142398;23;20929;-80
2021/09/09 17:52:05;;;;;;;11.87;10.60;;;26.30;82.90;;;;;;5143651;23;20734;-81
2021/09/09 17:54:09;;;;;;;11.70;10.50;;;26.30;83.60;;;;;;5143182;23;20429;-82
2021/09/09 17:56:13;;;;;;;12.67;10.80;;;26.30;83.60;;;;;;5143190;23;20472;-81
2021/09/09 17:58:16;;;;;;;11.77;9.50;;;26.20;83.60;;;;;;5142883;23;20433;-83
2021/09/09 18:00:25;;;;;;;11.80;9.80;;;26.20;83.60;;;;;;5143091;23;20467;-83
2021/09/09 18:02:27;;;;;;;12.53;9.97;;;26.00;84.00;;;;;;5141049;23;21234;-81
2021/09/09 18:04:32;;;;;;;11.93;10.60;;;26.00;84.30;;;;;;5147950;23;20424;-83
2021/09/09 18:06:35;;;;;;;12.63;11.30;;;25.80;84.70;;;;;;5145712;23;20448;-81
2021/09/09 18:08:38;;;;;;;13.87;11.00;;;25.80;84.80;;;;;;5146754;23;20758;-82
2021/09/09 18:10:41;;;;;;;14.80;11.30;;;25.70;84.90;;;;;;5147521;23;20504;-81
2021/09/09 18:12:45;;;;;;;14.33;12.27;;;25.80;84.80;;;;;;5143439;23;20425;-82
2021/09/09 18:14:48;;;;;;;14.33;11.20;;;25.80;84.80;;;;;;5144160;23;20487;-80
2021/09/09 18:16:51;;;;;;;13.87;10.53;;;25.70;85.00;;;;;;5145351;23;20429;-82
2021/09/09 18:18:53;;;;;;;12.50;11.20;;;25.60;85.30;;;;;;5145855;23;20439;-81
2021/09/09 18:20:58;;;;;;;14.27;11.10;;;25.50;85.70;;;;;;5143866;23;20452;-82
2021/09/09 18:23:01;;;;;;;12.40;11.10;;;25.40;86.10;;;;;;5142418;23;20432;-81
2021/09/09 18:25:05;;;;;;;13.00;11.70;;;25.20;86.60;;;;;;5145092;23;20946;-82
2021/09/09 18:27:08;;;;;;;21.63;18.00;;;25.10;86.80;;;;;;5146559;23;20433;-81
2021/09/09 18:29:11;;;;;;;25.60;20.30;;;25.20;86.80;;;;;;5145672;23;20439;-83
2021/09/09 18:31:14;;;;;;;20.07;17.40;;;25.10;87.00;;;;;;5146589;23;20435;-82
2021/09/09 18:33:16;;;;;;;12.67;11.17;;;25.00;87.10;;;;;;5146435;23;20437;-83
2021/09/09 18:35:19;;;;;;;12.10;9.83;;;24.80;87.70;;;;;;5146434;23;21055;-83
2021/09/09 18:37:24;;;;;;;10.90;9.90;;;24.80;87.80;;;;;;5146163;23;20917;-82
2021/09/09 18:39:27;;;;;;;10.90;9.80;;;24.70;88.10;;;;;;5144462;23;20428;-82
2021/09/09 18:41:30;;;;;;;13.10;9.87;;;24.70;88.30;;;;;;5153289;23;20441;-81
2021/09/09 18:43:33;;;;;;;14.00;10.67;;;24.50;88.60;;;;;;5144456;23;20429;-80
2021/09/09 18:45:36;;;;;;;13.13;11.73;;;24.50;88.80;;;;;;5145086;23;20471;-82
2021/09/09 18:47:39;;;;;;;11.57;10.47;;;24.50;88.80;;;;;;5145328;23;20435;-82
2021/09/09 18:49:42;;;;;;;11.80;10.60;;;24.50;88.80;;;;;;5145754;23;20443;-81
2021/09/09 18:51:45;;;;;;;11.00;9.80;;;24.40;89.10;;;;;;5154285;23;20501;-82
2021/09/09 18:53:55;;;;;;;11.70;10.60;;;24.50;89.10;;;;;;5145440;23;20436;-83
2021/09/09 18:55:58;;;;;;;14.00;9.67;;;24.40;89.40;;;;;;5145326;23;20448;-83
2021/09/09 18:58:00;;;;;;;17.90;15.07;;;24.30;89.50;;;;;;5145714;23;20483;-83
2021/09/09 19:00:04;;;;;;;13.27;11.87;;;24.30;89.80;;;;;;5154274;23;20431;-83
2021/09/09 19:02:07;;;;;;;23.70;20.00;;;24.20;89.80;;;;;;5153671;23;20528;-81
2021/09/09 19:04:10;;;;;;;13.23;11.70;;;24.20;89.90;;;;;;5145696;23;20435;-83
2021/09/09 19:06:13;;;;;;;12.20;11.00;;;24.30;89.90;;;;;;5155868;23;20460;-81
2021/09/09 19:08:16;;;;;;;13.57;11.87;;;24.20;90.00;;;;;;5151237;23;20429;-78
2021/09/09 19:10:21;;;;;;;13.97;11.37;;;24.30;90.20;;;;;;5145640;23;20425;-82
2021/09/09 19:12:23;;;;;;;12.97;11.10;;;24.30;90.10;;;;;;5153202;23;20433;-81
2021/09/09 19:14:26;;;;;;;11.97;10.77;;;24.20;90.40;;;;;;5151993;23;20421;-84
2021/09/09 19:16:39;;;;;;;12.17;10.33;;;24.20;90.50;;;;;;5144999;23;20457;-84
2021/09/09 19:18:41;;;;;;;12.87;10.83;;;24.10;90.70;;;;;;5144352;23;20440;-83
2021/09/09 19:20:44;;;;;;;11.70;10.37;;;24.10;90.80;;;;;;5143991;23;20448;-82
2021/09/09 19:22:50;;;;;;;12.43;10.90;;;24.10;90.80;;;;;;5153404;23;20779;-84
2021/09/09 19:24:53;;;;;;;11.87;10.67;;;24.00;91.10;;;;;;5153464;23;20429;-82
2021/09/09 19:26:57;;;;;;;14.73;11.30;;;23.90;91.50;;;;;;5153389;23;20424;-83
2021/09/09 19:29:00;;;;;;;14.93;11.13;;;23.90;91.80;;;;;;5143891;23;20747;-84